createdAt,value
2023-01-20T00:01:25.230Z,99870.94
2023-01-20T00:03:54.753Z,99882.16
2023-01-20T00:06:23.528Z,99879.47
2023-01-20T00:08:52.278Z,99882.94
2023-01-20T00:11:21.434Z,99887.34
2023-01-20T00:13:54.819Z,99891.69
2023-01-20T00:16:23.813Z,99894.37
2023-01-20T00:18:52.554Z,99900.53
2023-01-20T00:21:20.836Z,99894.53
2023-01-20T00:23:50.141Z,99896.25
2023-01-20T00:26:20.374Z,99899.81
2023-01-20T00:28:49.493Z,99905.00
2023-01-20T00:31:21.008Z,99899.63
2023-01-20T00:33:50.565Z,99904.06
2023-01-20T00:36:20.760Z,99911.06
2023-01-20T00:38:49.140Z,99907.78
2023-01-20T00:41:18.304Z,99913.78
2023-01-20T00:43:46.684Z,99918.09
2023-01-20T00:46:15.412Z,99919.13
2023-01-20T00:48:44.993Z,99916.50
2023-01-20T00:51:13.235Z,99921.69
2023-01-20T00:53:41.351Z,99929.66
2023-01-20T00:56:09.894Z,99929.03
2023-01-20T00:58:37.922Z,99930.81
2023-01-20T01:01:06.595Z,99934.28
2023-01-20T01:03:35.019Z,99939.63
2023-01-20T01:06:09.135Z,99939.78
2023-01-20T01:08:37.725Z,99945.28
2023-01-20T01:11:06.711Z,99949.75
2023-01-20T01:13:35.221Z,99953.34
2023-01-20T01:16:03.628Z,99962.16
2023-01-20T01:18:31.811Z,99970.19
2023-01-20T01:21:00.117Z,99973.91
2023-01-20T01:23:29.931Z,99978.41
2023-01-20T01:25:58.535Z,99975.84
2023-01-20T01:28:26.619Z,99977.75
2023-01-20T01:30:55.068Z,99976.97
2023-01-20T01:33:23.186Z,99977.13
2023-01-20T01:35:57.736Z,99976.38
2023-01-20T01:38:26.736Z,99975.47
2023-01-20T01:40:57.287Z,99974.72
2023-01-20T01:43:28.919Z,99982.69
2023-01-20T01:45:56.844Z,99986.22
2023-01-20T01:48:29.597Z,99984.63
2023-01-20T01:51:01.882Z,99989.16
2023-01-20T01:53:33.201Z,99995.50
2023-01-20T01:56:04.814Z,100000.91
2023-01-20T01:58:36.785Z,99995.75
2023-01-20T02:01:05.549Z,100003.72
2023-01-20T02:03:43.409Z,100003.72
2023-01-20T02:06:13.754Z,100007.28
2023-01-20T02:08:43.144Z,100010.69
2023-01-20T02:11:12.784Z,100007.13
2023-01-20T02:13:41.204Z,100008.03
2023-01-20T02:16:18.437Z,100013.13
2023-01-20T02:19:01.507Z,100013.81
2023-01-20T02:22:01.877Z,100019.81
2023-01-20T02:25:12.174Z,100024.91
2023-01-20T02:28:06.829Z,100024.00
2023-01-20T02:30:49.398Z,100032.97
2023-01-20T02:33:24.909Z,100041.72
2023-01-20T02:35:59.746Z,100042.56
2023-01-20T02:38:34.168Z,100048.53
2023-01-20T02:41:10.060Z,100052.00
2023-01-20T02:43:45.785Z,100058.03
2023-01-20T02:46:23.172Z,100057.91
2023-01-20T02:48:55.800Z,100054.28
2023-01-20T02:51:28.737Z,100042.69
2023-01-20T02:54:10.055Z,100062.72
2023-01-20T02:56:40.216Z,100052.16
2023-01-20T02:59:12.668Z,100060.91
2023-01-20T03:01:45.884Z,100057.34
2023-01-20T03:04:20.195Z,100060.91
2023-01-20T03:06:53.608Z,100056.69
2023-01-20T03:09:28.439Z,100062.81
2023-01-20T03:12:02.889Z,100054.97
2023-01-20T03:14:31.593Z,100056.75
2023-01-20T03:17:00.296Z,100054.22
2023-01-20T03:19:29.771Z,100059.47
2023-01-20T03:21:58.471Z,100062.19
2023-01-20T03:24:30.513Z,100069.16
2023-01-20T03:26:59.846Z,100077.37
2023-01-20T03:29:30.657Z,100072.97
2023-01-20T03:32:00.923Z,100081.03
2023-01-20T03:34:34.252Z,100084.66
2023-01-20T03:37:04.580Z,100080.31
2023-01-20T03:39:33.790Z,100084.78
2023-01-20T03:42:08.701Z,100089.25
2023-01-20T03:44:53.398Z,100085.50
2023-01-20T03:47:30.081Z,100091.19
2023-01-20T03:50:08.150Z,100088.63
2023-01-20T03:52:47.028Z,100094.16
2023-01-20T03:55:23.090Z,100093.56
2023-01-20T03:57:56.480Z,100090.88
2023-01-20T04:00:29.532Z,100098.56
2023-01-20T04:03:01.213Z,100099.41
2023-01-20T04:05:31.098Z,100104.69
2023-01-20T04:08:02.946Z,100108.09
2023-01-20T04:10:33.704Z,100110.78
2023-01-20T04:13:01.963Z,100111.84
2023-01-20T04:15:33.798Z,100116.19
2023-01-20T04:18:12.773Z,100124.00
2023-01-20T04:20:43.114Z,100126.62
2023-01-20T04:23:18.686Z,100136.31
2023-01-20T04:25:46.888Z,100144.91
2023-01-20T04:28:15.383Z,100130.81
2023-01-20T04:30:43.573Z,100128.94
2023-01-20T04:33:11.809Z,100131.56
2023-01-20T04:35:42.030Z,100134.12
2023-01-20T04:38:10.542Z,100132.41
2023-01-20T04:40:39.144Z,100136.75
2023-01-20T04:43:10.045Z,100151.75
2023-01-20T04:45:38.302Z,100142.16
2023-01-20T04:48:12.288Z,100142.94
2023-01-20T04:50:43.257Z,100155.09
2023-01-20T04:53:17.359Z,100161.19
2023-01-20T04:55:46.824Z,100162.97
2023-01-20T04:58:16.668Z,100164.69
2023-01-20T05:00:45.748Z,100168.25
2023-01-20T05:03:14.111Z,100167.38
2023-01-20T05:05:43.574Z,100170.03
2023-01-20T05:08:11.801Z,100170.09
2023-01-20T05:10:40.100Z,100169.88
2023-01-20T05:13:08.065Z,100169.88
2023-01-20T05:15:36.195Z,100175.13
2023-01-20T05:18:04.653Z,100170.81
2023-01-20T05:20:32.635Z,100183.16
2023-01-20T05:23:02.091Z,100184.03
2023-01-20T05:25:30.325Z,100184.44
2023-01-20T05:27:59.684Z,100187.72
2023-01-20T05:30:27.796Z,100186.19
2023-01-20T05:32:56.397Z,100193.09
2023-01-20T05:35:24.554Z,100198.28
2023-01-20T05:37:54.380Z,100204.28
2023-01-20T05:40:24.582Z,100206.06
2023-01-20T05:42:52.665Z,100212.28
2023-01-20T05:45:21.049Z,100218.44
2023-01-20T05:47:49.748Z,100216.66
2023-01-20T05:50:18.246Z,100214.13
2023-01-20T05:52:47.980Z,100220.37
2023-01-20T05:55:18.052Z,100221.31
2023-01-20T05:57:47.614Z,100224.88
2023-01-20T06:00:18.726Z,100224.97
2023-01-20T06:02:47.181Z,100229.22
2023-01-20T06:05:15.604Z,100230.91
2023-01-20T06:07:43.678Z,100244.00
2023-01-20T06:10:13.266Z,100236.87
2023-01-20T06:12:41.460Z,100243.06
2023-01-20T06:15:12.428Z,100240.44
2023-01-20T06:17:40.690Z,100241.44
2023-01-20T06:20:10.305Z,100242.28
2023-01-20T06:22:38.406Z,100248.41
2023-01-20T06:25:07.196Z,100248.47
2023-01-20T06:27:35.165Z,100250.25
2023-01-20T06:30:03.156Z,100251.16
2023-01-20T06:32:32.915Z,100254.66
2023-01-20T06:35:00.799Z,100260.75
2023-01-20T06:37:28.832Z,100255.56
2023-01-20T06:39:57.239Z,100265.25
2023-01-20T06:42:25.213Z,100265.34
2023-01-20T06:44:53.503Z,100268.97
2023-01-20T06:47:21.890Z,100278.78
2023-01-20T06:49:51.308Z,100285.88
2023-01-20T06:52:19.379Z,100289.53
2023-01-20T06:54:47.660Z,100292.16
2023-01-20T06:57:15.653Z,100299.19
2023-01-20T06:59:43.673Z,100301.81
2023-01-20T07:02:13.289Z,100309.84
2023-01-20T07:04:42.583Z,100309.91
2023-01-20T07:07:13.850Z,100313.41
2023-01-20T07:09:42.097Z,100312.53
2023-01-20T07:12:10.028Z,100312.59
2023-01-20T07:14:38.067Z,100317.03
2023-01-20T07:17:12.049Z,100324.00
2023-01-20T07:19:40.088Z,100329.16
2023-01-20T07:22:08.590Z,100337.78
2023-01-20T07:24:38.198Z,100338.00
2023-01-20T07:27:06.272Z,100337.12
2023-01-20T07:29:34.702Z,100343.34
2023-01-20T07:32:02.713Z,100339.75
2023-01-20T07:34:30.726Z,100346.53
2023-01-20T07:37:01.360Z,100345.44
2023-01-20T07:39:29.396Z,100346.09
2023-01-20T07:41:58.991Z,100351.19
2023-01-20T07:44:27.198Z,100354.47
2023-01-20T07:46:55.170Z,100365.84
2023-01-20T07:49:23.240Z,100359.59
2023-01-20T07:51:51.525Z,100363.13
2023-01-20T07:54:19.607Z,100361.19
2023-01-20T07:56:47.794Z,100373.28
2023-01-20T07:59:17.534Z,100371.41
2023-01-20T08:01:45.855Z,100377.31
2023-01-20T08:04:14.432Z,100377.16
2023-01-20T08:06:42.496Z,100376.22
2023-01-20T08:09:12.219Z,100378.84
2023-01-20T08:11:40.491Z,100382.34
2023-01-20T08:14:08.668Z,100382.97
2023-01-20T08:16:38.086Z,100384.81
2023-01-20T08:19:06.391Z,100386.41
2023-01-20T08:21:34.682Z,100392.34
2023-01-20T08:24:06.459Z,100396.59
2023-01-20T08:26:35.327Z,100391.09
2023-01-20T08:29:04.349Z,100403.19
2023-01-20T08:31:32.543Z,100395.69
2023-01-20T08:34:02.385Z,100399.44
2023-01-20T08:36:32.631Z,100408.38
2023-01-20T08:39:03.149Z,100405.22
2023-01-20T08:41:33.682Z,100408.16
2023-01-20T08:44:04.531Z,100404.34
2023-01-20T08:46:33.552Z,100413.47
2023-01-20T08:49:03.216Z,100412.00
2023-01-20T08:51:33.137Z,100417.97
2023-01-20T08:54:02.460Z,100421.91
2023-01-20T08:56:31.204Z,100431.59
2023-01-20T08:58:59.756Z,100443.75
2023-01-20T09:01:31.048Z,100440.91
2023-01-20T09:04:05.853Z,100445.00
2023-01-20T09:06:47.290Z,100444.63
2023-01-20T09:09:17.906Z,100450.50
2023-01-20T09:11:51.336Z,100447.56
2023-01-20T09:14:20.219Z,100454.37
2023-01-20T09:16:48.617Z,100450.41
2023-01-20T09:19:16.769Z,100455.00
2023-01-20T09:21:46.203Z,100453.81
2023-01-20T09:24:14.476Z,100460.87
2023-01-20T09:26:42.528Z,100469.22
2023-01-20T09:29:12.466Z,100460.84
2023-01-20T09:31:44.478Z,100468.41
2023-01-20T09:34:19.073Z,100476.41
2023-01-20T09:36:52.376Z,100481.34
2023-01-20T09:39:39.265Z,100486.00
2023-01-20T09:42:41.901Z,100487.97
2023-01-20T09:45:25.326Z,100490.19
2023-01-20T09:48:03.592Z,100495.22
2023-01-20T09:51:01.190Z,100501.03
2023-01-20T09:53:40.642Z,100509.25
2023-01-20T09:56:16.496Z,100510.97
2023-01-20T09:58:50.904Z,100511.56
2023-01-20T10:01:24.408Z,100512.50
2023-01-20T10:04:00.346Z,100521.94
2023-01-20T10:06:34.667Z,100518.28
2023-01-20T10:09:09.237Z,100522.47
2023-01-20T10:11:42.152Z,100527.63
2023-01-20T10:14:17.133Z,100531.06
2023-01-20T10:16:52.480Z,100538.97
2023-01-20T10:19:28.078Z,100535.41
2023-01-20T10:22:08.383Z,100545.03
2023-01-20T10:24:45.559Z,100536.59
2023-01-20T10:27:13.750Z,100543.25
2023-01-20T10:29:48.556Z,100542.97
2023-01-20T10:32:25.669Z,100542.19
2023-01-20T10:34:58.023Z,100540.97
2023-01-20T10:37:27.051Z,100541.87
2023-01-20T10:40:01.992Z,100542.37
2023-01-20T10:42:30.283Z,100543.66
2023-01-20T10:45:00.027Z,100545.78
2023-01-20T10:47:42.265Z,100546.34
2023-01-20T10:50:41.635Z,100549.00
2023-01-20T10:53:35.734Z,100546.97
2023-01-20T10:56:20.489Z,100541.06
2023-01-20T10:58:48.658Z,100549.88
2023-01-20T11:01:19.849Z,100547.44
2023-01-20T11:03:49.888Z,100549.50
2023-01-20T11:06:20.976Z,100548.41
2023-01-20T11:08:49.558Z,100543.78
2023-01-20T11:11:21.627Z,100542.50
2023-01-20T11:13:51.610Z,100544.16
2023-01-20T11:16:24.912Z,100546.53
2023-01-20T11:18:57.922Z,100546.72
2023-01-20T11:21:27.463Z,100548.63
2023-01-20T11:23:56.837Z,100553.41
2023-01-20T11:26:29.111Z,100553.84
2023-01-20T11:28:59.085Z,100557.72
2023-01-20T11:31:39.704Z,100553.53
2023-01-20T11:34:23.781Z,100550.56
2023-01-20T11:36:52.765Z,100559.13
2023-01-20T11:39:27.365Z,100560.16
2023-01-20T11:42:16.377Z,100560.94
2023-01-20T11:44:45.734Z,100556.13
2023-01-20T11:47:25.558Z,100550.78
2023-01-20T11:50:25.581Z,100562.28
2023-01-20T11:52:53.817Z,100557.59
2023-01-20T11:55:24.220Z,100563.66
2023-01-20T11:57:56.884Z,100563.03
2023-01-20T12:00:37.164Z,100560.06
2023-01-20T12:03:27.705Z,100562.53
2023-01-20T12:06:01.609Z,100566.56
2023-01-20T12:08:35.935Z,100574.28
2023-01-20T12:11:08.154Z,100572.25
2023-01-20T12:13:59.624Z,100576.34
2023-01-20T12:16:30.966Z,100574.28
2023-01-20T12:19:05.610Z,100578.72
2023-01-20T12:21:38.115Z,100574.78
2023-01-20T12:24:16.514Z,100580.22
2023-01-20T12:26:44.646Z,100584.41
2023-01-20T12:29:22.376Z,100579.37
2023-01-20T12:31:50.892Z,100584.19
2023-01-20T12:34:25.101Z,100587.53
2023-01-20T12:37:06.449Z,100592.13
2023-01-20T12:39:48.966Z,100599.91
2023-01-20T12:42:43.555Z,100602.31
2023-01-20T12:45:28.525Z,100598.62
2023-01-20T12:48:07.537Z,100605.63
2023-01-20T12:50:53.111Z,100609.66
2023-01-20T12:53:39.128Z,100606.84
2023-01-20T12:56:16.985Z,100606.50
2023-01-20T12:58:56.556Z,100610.50
2023-01-20T13:01:39.123Z,100616.72
2023-01-20T13:04:34.882Z,100617.88
2023-01-20T13:07:15.056Z,100624.47
2023-01-20T13:09:58.473Z,100626.47
2023-01-20T13:12:36.900Z,100636.91
2023-01-20T13:15:19.034Z,100634.25
2023-01-20T13:18:03.270Z,100633.41
2023-01-20T13:20:32.018Z,100630.06
2023-01-20T13:23:04.067Z,100624.78
2023-01-20T13:25:34.885Z,100634.72
2023-01-20T13:28:04.942Z,100638.19
2023-01-20T13:30:43.712Z,100633.75
2023-01-20T13:33:19.376Z,100648.59
2023-01-20T13:35:50.026Z,100649.53
2023-01-20T13:38:21.767Z,100652.19
2023-01-20T13:40:53.466Z,100659.88
2023-01-20T13:43:36.841Z,100660.13
2023-01-20T13:46:46.573Z,100666.34
2023-01-20T13:49:23.443Z,100667.53
2023-01-20T13:51:51.749Z,100666.81
2023-01-20T13:54:39.249Z,100672.97
2023-01-20T13:57:36.612Z,100679.59
2023-01-20T14:00:17.393Z,100683.00
2023-01-20T14:02:46.867Z,100685.13
2023-01-20T14:05:37.698Z,100683.47
2023-01-20T14:08:14.757Z,100686.44
2023-01-20T14:10:42.964Z,100702.84
2023-01-20T14:13:11.458Z,100696.16
2023-01-20T14:15:41.321Z,100704.56
2023-01-20T14:18:18.487Z,100706.22
2023-01-20T14:21:02.262Z,100704.34
2023-01-20T14:23:34.518Z,100699.91
2023-01-20T14:26:06.584Z,100701.16
2023-01-20T14:28:35.557Z,100704.75
2023-01-20T14:31:35.285Z,100710.81
2023-01-20T14:34:19.853Z,100710.06
2023-01-20T14:36:49.766Z,100712.03
2023-01-20T14:39:21.758Z,100717.16
2023-01-20T14:41:52.067Z,100715.44
2023-01-20T14:44:22.310Z,100716.47
2023-01-20T14:46:52.597Z,100722.75
2023-01-20T14:49:22.425Z,100719.47
2023-01-20T14:51:52.658Z,100722.19
2023-01-20T14:54:43.248Z,100723.88
2023-01-20T14:57:28.568Z,100731.91
2023-01-20T15:00:22.416Z,100725.41
2023-01-20T15:03:05.342Z,100735.41
2023-01-20T15:05:41.740Z,100742.97
2023-01-20T15:08:26.085Z,100741.63
2023-01-20T15:11:21.787Z,100744.75
2023-01-20T15:14:10.875Z,100739.88
2023-01-20T15:16:52.078Z,100745.63
2023-01-20T15:19:31.512Z,100752.97
2023-01-20T15:22:18.227Z,100747.25
2023-01-20T15:24:49.535Z,100763.44
2023-01-20T15:27:25.528Z,100765.59
2023-01-20T15:30:16.339Z,100773.84
2023-01-20T15:32:44.565Z,100772.37
2023-01-20T15:35:15.248Z,100772.91
2023-01-20T15:37:44.604Z,100785.69
2023-01-20T15:40:17.938Z,100785.38
2023-01-20T15:42:46.917Z,100784.88
2023-01-20T15:45:16.839Z,100789.56
2023-01-20T15:47:46.852Z,100799.63
2023-01-20T15:50:21.061Z,100801.81
2023-01-20T15:52:49.667Z,100804.91
2023-01-20T15:55:20.646Z,100812.25
2023-01-20T15:57:52.596Z,100813.53
2023-01-20T16:00:23.035Z,100810.97
2023-01-20T16:02:51.574Z,100819.91
2023-01-20T16:05:19.825Z,100828.94
2023-01-20T16:07:49.560Z,100830.09
2023-01-20T16:10:20.817Z,100834.88
2023-01-20T16:12:49.181Z,100836.94
2023-01-20T16:15:19.549Z,100840.69
2023-01-20T16:17:47.831Z,100845.28
2023-01-20T16:20:21.967Z,100847.28
2023-01-20T16:22:51.377Z,100855.44
2023-01-20T16:25:23.274Z,100856.50
2023-01-20T16:27:51.812Z,100867.22
2023-01-20T16:30:24.719Z,100867.41
2023-01-20T16:32:53.470Z,100864.97
2023-01-20T16:35:23.638Z,100867.81
2023-01-20T16:37:52.798Z,100873.25
2023-01-20T16:40:24.658Z,100884.84
2023-01-20T16:42:56.022Z,100886.75
2023-01-20T16:45:28.235Z,100891.25
2023-01-20T16:47:57.733Z,100900.12
2023-01-20T16:50:28.806Z,100902.84
2023-01-20T16:52:57.948Z,100897.78
2023-01-20T16:55:28.073Z,100905.81
2023-01-20T16:57:56.187Z,100902.44
2023-01-20T17:00:24.572Z,100910.38
2023-01-20T17:02:53.232Z,100913.22
2023-01-20T17:05:25.509Z,100918.53
2023-01-20T17:07:54.629Z,100919.50
2023-01-20T17:10:22.617Z,100923.16
2023-01-20T17:12:52.976Z,100925.91
2023-01-20T17:15:21.921Z,100933.19
2023-01-20T17:17:50.038Z,100936.03
2023-01-20T17:20:18.557Z,100933.50
2023-01-20T17:22:46.839Z,100942.37
2023-01-20T17:25:17.922Z,100943.25
2023-01-20T17:27:46.361Z,100945.97
2023-01-20T17:30:17.133Z,100946.88
2023-01-20T17:32:49.715Z,100948.66
2023-01-20T17:35:19.111Z,100951.31
2023-01-20T17:37:47.155Z,100958.38
2023-01-20T17:40:16.967Z,100958.38
2023-01-20T17:42:46.485Z,100960.16
2023-01-20T17:45:16.142Z,100961.03
2023-01-20T17:47:44.218Z,100964.56
2023-01-20T17:50:12.561Z,100964.59
2023-01-20T17:52:40.756Z,100966.38
2023-01-20T17:55:09.505Z,100969.88
2023-01-20T17:57:37.828Z,100974.31
2023-01-20T18:00:07.021Z,100970.94
2023-01-20T18:02:37.038Z,100982.34
2023-01-20T18:05:05.996Z,100983.28
2023-01-20T18:07:34.024Z,100987.72
2023-01-20T18:10:02.220Z,100986.00
2023-01-20T18:12:30.315Z,100988.69
2023-01-20T18:14:58.837Z,100989.63
2023-01-20T18:17:27.238Z,100994.97
2023-01-20T18:19:56.581Z,100993.28
2023-01-20T18:22:24.620Z,101003.03
2023-01-20T18:24:52.870Z,101010.06
2023-01-20T18:27:20.791Z,101010.97
2023-01-20T18:29:50.247Z,101009.28
2023-01-20T18:32:18.882Z,101007.53
2023-01-20T18:34:46.997Z,101006.69
2023-01-20T18:37:16.470Z,101011.13
2023-01-20T18:39:45.075Z,101011.19
2023-01-20T18:42:13.296Z,101006.00
2023-01-20T18:44:41.537Z,101014.84
2023-01-20T18:47:09.891Z,101015.84
2023-01-20T18:49:37.886Z,101019.41
2023-01-20T18:52:06.214Z,101023.91
2023-01-20T18:54:38.433Z,101024.84
2023-01-20T18:57:09.026Z,101025.78
2023-01-20T18:59:37.522Z,101019.69
2023-01-20T19:02:05.638Z,101039.81
2023-01-20T19:04:35.648Z,101035.50
2023-01-20T19:07:04.129Z,101035.59
2023-01-20T19:09:32.210Z,101037.31
2023-01-20T19:12:01.747Z,101043.44
2023-01-20T19:14:30.119Z,101046.06
2023-01-20T19:16:58.253Z,101054.78
2023-01-20T19:19:26.278Z,101057.41
2023-01-20T19:21:54.678Z,101059.22
2023-01-20T19:24:22.862Z,101060.13
2023-01-20T19:26:50.943Z,101069.72
2023-01-20T19:29:20.934Z,101070.66
2023-01-20T19:31:49.567Z,101073.34
2023-01-20T19:34:17.576Z,101081.22
2023-01-20T19:36:45.835Z,101083.94
2023-01-20T19:39:13.817Z,101080.47
2023-01-20T19:41:41.814Z,101078.78
2023-01-20T19:44:13.671Z,101078.81
2023-01-20T19:46:43.366Z,101090.19
2023-01-20T19:49:12.908Z,101095.47
2023-01-20T19:51:41.431Z,101095.47
2023-01-20T19:54:13.258Z,101096.38
2023-01-20T19:56:41.895Z,101105.13
2023-01-20T19:59:13.191Z,101101.63
2023-01-20T20:01:43.134Z,101105.16
2023-01-20T20:04:13.308Z,101106.03
2023-01-20T20:06:46.049Z,101113.00
2023-01-20T20:09:18.865Z,101120.84
2023-01-20T20:11:47.918Z,101120.91
2023-01-20T20:14:18.111Z,101118.31
2023-01-20T20:16:48.437Z,101121.78
2023-01-20T20:19:18.763Z,101123.59
2023-01-20T20:21:47.083Z,101126.34
2023-01-20T20:24:17.800Z,101118.59
2023-01-20T20:26:47.350Z,101123.78
2023-01-20T20:29:17.548Z,101125.47
2023-01-20T20:31:47.708Z,101123.72
2023-01-20T20:34:17.806Z,101136.75
2023-01-20T20:36:46.500Z,101135.91
2023-01-20T20:39:16.101Z,101141.09
2023-01-20T20:41:44.622Z,101141.09
2023-01-20T20:44:13.430Z,101141.09
2023-01-20T20:46:41.721Z,101146.38
2023-01-20T20:49:14.888Z,101144.72
2023-01-20T20:51:43.295Z,101142.97
2023-01-20T20:54:13.109Z,101147.22
2023-01-20T20:56:41.301Z,101150.66
2023-01-20T20:59:10.377Z,101154.09
2023-01-20T21:01:38.759Z,101153.19
2023-01-20T21:04:06.997Z,101156.75
2023-01-20T21:06:36.842Z,101158.56
2023-01-20T21:09:05.107Z,101158.59
2023-01-20T21:11:33.711Z,101156.03
2023-01-20T21:14:02.075Z,101164.81
2023-01-20T21:16:30.156Z,101169.28
2023-01-20T21:18:59.276Z,101172.00
2023-01-20T21:21:28.970Z,101165.97
2023-01-20T21:23:59.826Z,101171.28
2023-01-20T21:26:30.660Z,101168.78
2023-01-20T21:29:01.682Z,101167.06
2023-01-20T21:31:31.358Z,101167.94
2023-01-20T21:34:00.501Z,101173.22
2023-01-20T21:36:29.905Z,101176.75
2023-01-20T21:39:00.530Z,101181.12
2023-01-20T21:41:28.797Z,101186.41
2023-01-20T21:44:15.850Z,101189.09
2023-01-20T21:46:44.054Z,101191.81
2023-01-20T21:49:26.658Z,101197.09
2023-01-20T21:52:12.656Z,101204.94
2023-01-20T21:54:44.978Z,101204.09
2023-01-20T21:57:13.709Z,101206.87
2023-01-20T21:59:42.502Z,101212.16
2023-01-20T22:02:12.964Z,101214.75
2023-01-20T22:04:41.465Z,101222.66
2023-01-20T22:07:10.319Z,101218.28
2023-01-20T22:09:38.234Z,101224.44
2023-01-20T22:12:10.117Z,101231.50
2023-01-20T22:14:38.308Z,101229.78
2023-01-20T22:17:07.295Z,101237.59
2023-01-20T22:19:35.380Z,101235.03
2023-01-20T22:22:04.316Z,101239.41
2023-01-20T22:24:32.757Z,101239.38
2023-01-20T22:27:01.629Z,101243.72
2023-01-20T22:29:31.376Z,101242.81
2023-01-20T22:32:02.344Z,101241.03
2023-01-20T22:34:30.656Z,101239.28
2023-01-20T22:37:00.490Z,101243.66
2023-01-20T22:39:29.033Z,101248.00
2023-01-20T22:41:57.256Z,101249.75
2023-01-20T22:44:25.328Z,101255.81
2023-01-20T22:46:54.970Z,101257.63
2023-01-20T22:49:23.047Z,101259.34
2023-01-20T22:51:51.532Z,101262.88
2023-01-20T22:54:20.008Z,101265.47
2023-01-20T22:56:48.107Z,101268.16
2023-01-20T22:59:16.274Z,101270.78
2023-01-20T23:01:44.559Z,101266.47
2023-01-20T23:04:15.038Z,101269.12
2023-01-20T23:06:43.151Z,101270.06
2023-01-20T23:09:14.335Z,101278.84
2023-01-20T23:11:43.058Z,101281.53
2023-01-20T23:14:13.639Z,101287.69
2023-01-20T23:16:42.581Z,101289.53
2023-01-20T23:19:10.786Z,101285.22
2023-01-20T23:21:40.394Z,101289.59
2023-01-20T23:24:09.508Z,101300.09
2023-01-20T23:26:37.555Z,101294.00
2023-01-20T23:29:05.873Z,101290.53
2023-01-20T23:31:35.314Z,101294.87
2023-01-20T23:34:03.873Z,101299.34
2023-01-20T23:36:35.225Z,101296.72
2023-01-20T23:39:04.773Z,101311.50
2023-01-20T23:41:35.782Z,101314.97
2023-01-20T23:44:03.892Z,101314.97
2023-01-20T23:46:31.863Z,101321.06
2023-01-20T23:49:00.125Z,101327.19
2023-01-20T23:51:28.110Z,101326.28
2023-01-20T23:53:56.850Z,101328.03
2023-01-20T23:56:26.756Z,101326.28
2023-01-20T23:58:54.903Z,101332.31
